createdAt,value
2023-03-03T00:01:33.400Z,48.63
2023-03-03T00:04:01.498Z,48.37
2023-03-03T00:06:30.529Z,47.67
2023-03-03T00:08:58.656Z,47.83
2023-03-03T00:11:28.029Z,49.13
2023-03-03T00:13:57.349Z,50.63
2023-03-03T00:16:27.053Z,56.17
2023-03-03T00:18:55.631Z,55.00
2023-03-03T00:21:29.353Z,54.23
2023-03-03T00:24:12.906Z,55.63
2023-03-03T00:26:45.350Z,54.47
2023-03-03T00:29:31.361Z,54.37
2023-03-03T00:32:17.484Z,54.97
2023-03-03T00:34:45.840Z,55.33
2023-03-03T00:37:31.973Z,56.00
2023-03-03T00:40:22.639Z,53.90
2023-03-03T00:42:54.812Z,53.87
2023-03-03T00:45:36.422Z,51.13
2023-03-03T00:48:20.067Z,52.07
2023-03-03T00:50:48.947Z,51.27
2023-03-03T00:53:19.104Z,50.13
2023-03-03T00:55:48.301Z,50.77
2023-03-03T00:58:18.602Z,52.07
2023-03-03T01:00:46.579Z,51.40
2023-03-03T01:03:16.268Z,52.00
2023-03-03T01:05:44.293Z,52.23
2023-03-03T01:08:12.524Z,53.23
2023-03-03T01:10:44.026Z,54.13
2023-03-03T01:13:12.512Z,53.97
2023-03-03T01:15:42.337Z,57.07
2023-03-03T01:18:11.359Z,56.13
2023-03-03T01:20:39.455Z,56.40
2023-03-03T01:23:07.466Z,55.13
2023-03-03T01:25:35.611Z,55.97
2023-03-03T01:28:03.634Z,57.43
2023-03-03T01:30:32.410Z,54.63
2023-03-03T01:33:01.894Z,57.33
2023-03-03T01:35:30.161Z,57.27
2023-03-03T01:37:58.910Z,56.87
2023-03-03T01:40:28.982Z,57.70
2023-03-03T01:42:57.282Z,55.37
2023-03-03T01:45:27.010Z,60.50
2023-03-03T01:48:00.321Z,58.97
2023-03-03T01:50:39.875Z,60.77
2023-03-03T01:53:13.458Z,58.77
2023-03-03T01:55:43.139Z,57.77
2023-03-03T01:58:15.416Z,58.07
2023-03-03T02:00:46.913Z,56.67
2023-03-03T02:03:14.874Z,54.37
2023-03-03T02:05:44.938Z,55.40
2023-03-03T02:08:17.295Z,52.00
2023-03-03T02:10:47.180Z,55.10
2023-03-03T02:13:15.611Z,54.03
2023-03-03T02:15:43.597Z,52.50
2023-03-03T02:18:14.211Z,53.10
2023-03-03T02:20:58.613Z,53.50
2023-03-03T02:23:34.505Z,51.27
2023-03-03T02:26:11.246Z,53.30
2023-03-03T02:28:40.767Z,54.00
2023-03-03T02:31:13.331Z,55.53
2023-03-03T02:33:42.230Z,53.53
2023-03-03T02:36:13.876Z,54.43
2023-03-03T02:38:49.500Z,54.43
2023-03-03T02:41:27.995Z,56.80
2023-03-03T02:44:00.823Z,52.67
2023-03-03T02:46:29.480Z,53.53
2023-03-03T02:48:57.489Z,56.10
2023-03-03T02:51:25.511Z,54.63
2023-03-03T02:53:53.464Z,56.47
2023-03-03T02:56:23.045Z,53.57
2023-03-03T02:58:51.200Z,53.03
2023-03-03T03:01:19.819Z,52.67
2023-03-03T03:03:48.165Z,52.87
2023-03-03T03:06:16.470Z,55.33
2023-03-03T03:08:44.421Z,57.67
2023-03-03T03:11:12.363Z,56.13
2023-03-03T03:13:41.791Z,60.63
2023-03-03T03:16:09.842Z,61.60
2023-03-03T03:18:37.850Z,62.90
2023-03-03T03:21:10.642Z,62.27
2023-03-03T03:23:38.707Z,60.07
2023-03-03T03:26:07.621Z,59.47
2023-03-03T03:28:36.138Z,59.50
2023-03-03T03:31:07.294Z,59.70
2023-03-03T03:33:35.699Z,58.73
2023-03-03T03:36:03.770Z,57.63
2023-03-03T03:38:32.340Z,57.70
2023-03-03T03:41:00.680Z,59.70
2023-03-03T03:43:28.734Z,60.17
2023-03-03T03:45:56.794Z,59.53
2023-03-03T03:48:26.224Z,60.33
2023-03-03T03:50:54.194Z,60.03
2023-03-03T03:53:22.146Z,62.83
2023-03-03T03:55:50.113Z,59.53
2023-03-03T03:58:19.235Z,60.63
2023-03-03T04:00:49.410Z,60.17
2023-03-03T04:03:17.587Z,59.60
2023-03-03T04:05:46.975Z,61.07
2023-03-03T04:08:14.925Z,59.57
2023-03-03T04:10:42.927Z,58.83
2023-03-03T04:13:10.894Z,58.83
2023-03-03T04:15:38.969Z,61.10
2023-03-03T04:18:07.006Z,56.17
2023-03-03T04:20:35.110Z,57.87
2023-03-03T04:23:04.443Z,54.27
2023-03-03T04:25:32.449Z,54.80
2023-03-03T04:28:00.479Z,53.37
2023-03-03T04:30:29.149Z,55.00
2023-03-03T04:32:57.122Z,54.77
2023-03-03T04:35:25.174Z,50.90
2023-03-03T04:37:53.188Z,49.17
2023-03-03T04:40:22.590Z,52.23
2023-03-03T04:42:50.706Z,52.53
2023-03-03T04:45:18.974Z,51.10
2023-03-03T04:47:47.161Z,56.23
2023-03-03T04:50:15.151Z,51.73
2023-03-03T04:52:43.116Z,52.93
2023-03-03T04:55:11.927Z,54.13
2023-03-03T04:57:41.349Z,54.43
2023-03-03T05:00:10.587Z,52.47
2023-03-03T05:02:38.549Z,56.83
2023-03-03T05:05:07.280Z,52.80
2023-03-03T05:07:35.225Z,53.50
2023-03-03T05:10:03.275Z,53.43
2023-03-03T05:12:31.227Z,55.07
2023-03-03T05:15:01.400Z,59.63
2023-03-03T05:17:29.554Z,59.63
2023-03-03T05:19:57.728Z,61.47
2023-03-03T05:22:26.844Z,65.53
2023-03-03T05:24:54.998Z,68.13
2023-03-03T05:27:22.994Z,68.37
2023-03-03T05:29:51.405Z,65.43
2023-03-03T05:32:20.792Z,62.00
2023-03-03T05:34:48.765Z,59.07
2023-03-03T05:37:16.752Z,56.23
2023-03-03T05:39:45.178Z,53.47
2023-03-03T05:42:14.057Z,51.43
2023-03-03T05:44:42.143Z,50.77
2023-03-03T05:47:10.231Z,52.60
2023-03-03T05:49:39.732Z,50.53
2023-03-03T05:52:09.023Z,51.50
2023-03-03T05:54:37.209Z,50.50
2023-03-03T05:57:05.249Z,51.03
2023-03-03T05:59:33.238Z,52.83
2023-03-03T06:02:01.234Z,52.37
2023-03-03T06:04:29.189Z,51.33
2023-03-03T06:06:58.551Z,51.60
2023-03-03T06:09:27.293Z,51.60
2023-03-03T06:11:55.338Z,51.67
2023-03-03T06:14:26.974Z,50.70
2023-03-03T06:16:55.207Z,52.80
2023-03-03T06:19:23.156Z,50.23
2023-03-03T06:21:51.216Z,51.70
2023-03-03T06:24:20.604Z,50.60
2023-03-03T06:26:48.598Z,50.30
2023-03-03T06:29:16.600Z,50.97
2023-03-03T06:31:44.819Z,51.73
2023-03-03T06:34:12.864Z,51.57
2023-03-03T06:36:40.861Z,51.77
2023-03-03T06:39:08.934Z,52.27
2023-03-03T06:41:38.384Z,52.37
2023-03-03T06:44:06.588Z,53.47
2023-03-03T06:46:34.628Z,53.30
2023-03-03T06:49:03.258Z,51.40
2023-03-03T06:51:35.046Z,50.93
2023-03-03T06:54:07.730Z,48.13
2023-03-03T06:56:38.966Z,45.70
2023-03-03T06:59:13.696Z,46.47
2023-03-03T07:01:42.062Z,46.07
2023-03-03T07:04:23.595Z,48.70
2023-03-03T07:24:34.345Z,61.63
2023-03-03T07:27:12.525Z,63.80
2023-03-03T07:29:42.295Z,67.97
2023-03-03T07:32:28.321Z,67.67
2023-03-03T07:34:57.563Z,67.13
2023-03-03T07:37:38.536Z,68.77
2023-03-03T07:40:32.354Z,65.97
2023-03-03T07:43:00.526Z,63.40
2023-03-03T07:45:31.194Z,62.53
2023-03-03T07:48:13.411Z,62.73
2023-03-03T07:50:42.202Z,64.13
2023-03-03T07:53:16.348Z,63.17
2023-03-03T07:55:46.664Z,64.40
2023-03-03T07:58:23.173Z,67.33
2023-03-03T08:01:27.363Z,64.83
2023-03-03T08:03:56.063Z,63.60
2023-03-03T08:06:38.299Z,60.47
2023-03-03T08:09:28.352Z,60.80
2023-03-03T08:12:00.813Z,59.40
2023-03-03T08:14:31.608Z,59.53
2023-03-03T08:17:01.805Z,54.30
2023-03-03T08:19:32.292Z,56.27
2023-03-03T08:22:04.664Z,53.73
2023-03-03T08:24:32.904Z,61.33
2023-03-03T08:27:02.465Z,53.23
2023-03-03T08:29:30.598Z,52.97
2023-03-03T08:31:58.879Z,49.37
2023-03-03T08:34:27.310Z,48.73
2023-03-03T08:36:58.230Z,54.20
2023-03-03T08:39:26.344Z,45.47
2023-03-03T08:41:54.330Z,42.13
2023-03-03T08:44:24.107Z,39.47
2023-03-03T08:46:52.120Z,37.03
2023-03-03T08:49:20.205Z,36.10
2023-03-03T08:51:48.836Z,37.60
2023-03-03T08:54:17.120Z,34.80
2023-03-03T08:56:45.865Z,36.27
2023-03-03T08:59:14.487Z,34.53
2023-03-03T09:01:45.715Z,33.67
2023-03-03T09:04:14.256Z,34.13
2023-03-03T09:06:43.070Z,34.60
2023-03-03T09:09:11.251Z,33.53
2023-03-03T09:11:39.667Z,32.80
2023-03-03T09:14:12.863Z,31.67
2023-03-03T09:16:46.963Z,33.25
2023-03-03T09:19:23.686Z,30.60
2023-03-03T09:21:54.832Z,31.20
2023-03-03T09:24:27.993Z,29.80
2023-03-03T09:26:58.583Z,33.03
2023-03-03T09:29:29.553Z,33.37
2023-03-03T09:32:02.566Z,30.63
2023-03-03T09:34:40.840Z,33.07
2023-03-03T09:37:23.102Z,32.97
2023-03-03T09:39:52.803Z,33.40
2023-03-03T09:42:50.828Z,36.37
2023-03-03T09:45:41.886Z,33.97
2023-03-03T09:48:29.137Z,40.35
2023-03-03T09:51:12.574Z,37.37
2023-03-03T09:53:56.671Z,37.97
2023-03-03T09:56:29.552Z,36.33
2023-03-03T09:59:10.473Z,36.53
2023-03-03T10:01:51.466Z,36.17
2023-03-03T10:05:09.736Z,34.50
2023-03-03T10:07:45.907Z,35.53
2023-03-03T10:10:25.466Z,36.13
2023-03-03T10:13:06.327Z,35.97
2023-03-03T10:15:43.819Z,34.10
2023-03-03T10:18:24.519Z,34.17
2023-03-03T10:21:05.803Z,36.43
2023-03-03T10:23:58.860Z,34.57
2023-03-03T10:27:09.896Z,39.03
2023-03-03T10:29:56.310Z,36.40
2023-03-03T10:32:53.241Z,32.27
2023-03-03T10:35:51.128Z,34.23
2023-03-03T10:38:42.613Z,31.60
2023-03-03T10:41:25.521Z,35.40
2023-03-03T10:44:09.987Z,32.43
2023-03-03T10:46:52.775Z,33.53
2023-03-03T10:49:28.703Z,34.93
2023-03-03T10:52:12.662Z,32.27
2023-03-03T10:55:06.289Z,32.53
2023-03-03T10:57:39.388Z,32.63
2023-03-03T11:00:22.346Z,38.93
2023-03-03T11:03:16.051Z,36.97
2023-03-03T11:05:48.027Z,34.57
2023-03-03T11:08:21.660Z,35.00
2023-03-03T11:11:02.525Z,34.33
2023-03-03T11:13:41.116Z,31.67
2023-03-03T11:16:37.245Z,31.67
2023-03-03T11:19:22.556Z,29.23
2023-03-03T11:21:57.577Z,31.73
2023-03-03T11:24:41.453Z,30.13
2023-03-03T11:27:34.498Z,31.43
2023-03-03T11:30:25.788Z,30.57
2023-03-03T11:33:01.399Z,32.87
2023-03-03T11:35:37.217Z,29.47
2023-03-03T11:38:18.532Z,28.50
2023-03-03T11:40:51.901Z,27.97
2023-03-03T11:43:36.713Z,26.47
2023-03-03T11:46:10.207Z,28.67
2023-03-03T11:48:44.948Z,30.30
2023-03-03T11:51:16.998Z,31.40
2023-03-03T11:54:06.464Z,32.37
2023-03-03T11:56:40.852Z,29.07
2023-03-03T11:59:42.508Z,30.53
2023-03-03T12:02:33.192Z,30.27
2023-03-03T12:05:09.952Z,29.67
2023-03-03T12:07:48.354Z,30.37
2023-03-03T12:10:24.623Z,30.53
2023-03-03T12:13:02.509Z,32.07
2023-03-03T12:15:42.156Z,30.73
2023-03-03T12:18:39.394Z,31.57
2023-03-03T12:21:19.354Z,31.37
2023-03-03T12:24:25.632Z,30.67
2023-03-03T12:27:02.556Z,31.77
2023-03-03T12:29:39.077Z,32.27
2023-03-03T12:32:23.236Z,31.53
2023-03-03T12:34:55.719Z,32.87
2023-03-03T12:37:47.549Z,29.67
2023-03-03T12:40:21.912Z,30.47
2023-03-03T12:43:19.428Z,31.07
2023-03-03T12:45:57.201Z,28.73
2023-03-03T12:48:35.719Z,32.57
2023-03-03T12:51:11.597Z,32.07
2023-03-03T12:53:50.203Z,31.10
2023-03-03T12:56:25.452Z,31.67
2023-03-03T12:59:01.535Z,31.47
2023-03-03T13:01:41.256Z,29.17
2023-03-03T13:04:19.052Z,32.37
2023-03-03T13:06:53.975Z,32.93
2023-03-03T13:09:34.800Z,30.43
2023-03-03T13:12:23.321Z,28.37
2023-03-03T13:14:55.258Z,30.73
2023-03-03T13:17:28.984Z,29.53
2023-03-03T13:20:01.233Z,32.03
2023-03-03T13:22:37.851Z,27.13
2023-03-03T13:25:24.610Z,26.37
2023-03-03T13:27:57.460Z,28.17
2023-03-03T13:30:28.410Z,25.80
2023-03-03T13:33:01.625Z,28.87
2023-03-03T13:35:41.690Z,27.57
2023-03-03T13:38:14.750Z,28.97
2023-03-03T13:40:46.772Z,26.97
2023-03-03T13:43:20.104Z,27.53
2023-03-03T13:45:59.366Z,28.73
2023-03-03T13:48:44.774Z,29.10
2023-03-03T13:51:24.419Z,27.47
2023-03-03T13:54:01.196Z,30.60
2023-03-03T13:56:48.267Z,29.30
2023-03-03T13:59:25.767Z,28.20
2023-03-03T14:02:00.634Z,25.60
2023-03-03T14:04:39.745Z,25.27
2023-03-03T14:07:15.530Z,25.33
2023-03-03T14:10:00.915Z,26.67
2023-03-03T14:12:39.829Z,27.43
2023-03-03T14:15:20.728Z,27.17
2023-03-03T14:18:06.264Z,25.20
2023-03-03T14:20:38.655Z,24.00
2023-03-03T14:23:15.902Z,27.90
2023-03-03T14:25:57.637Z,30.40
2023-03-03T14:28:27.454Z,27.83
2023-03-03T14:30:58.119Z,27.83
2023-03-03T14:33:32.346Z,25.60
2023-03-03T14:36:11.355Z,26.10
2023-03-03T14:38:51.734Z,27.30
2023-03-03T14:41:23.271Z,25.27
2023-03-03T14:43:59.713Z,25.97
2023-03-03T14:46:37.546Z,28.87
2023-03-03T14:49:07.335Z,30.87
2023-03-03T14:51:42.989Z,26.47
2023-03-03T14:54:22.153Z,25.53
2023-03-03T14:57:01.501Z,26.07
2023-03-03T14:59:29.644Z,27.00
2023-03-03T15:02:27.113Z,26.10
2023-03-03T15:05:15.142Z,25.20
2023-03-03T15:07:44.061Z,29.30
2023-03-03T15:10:14.498Z,32.50
2023-03-03T15:12:43.609Z,32.37
2023-03-03T15:15:20.288Z,28.60
2023-03-03T15:17:58.746Z,25.27
2023-03-03T15:20:40.159Z,25.63
2023-03-03T15:23:37.876Z,25.57
2023-03-03T15:26:13.156Z,26.93
2023-03-03T15:28:55.077Z,28.03
2023-03-03T15:31:32.647Z,28.77
2023-03-03T15:34:07.317Z,28.37
2023-03-03T15:36:43.811Z,29.33
2023-03-03T15:39:23.806Z,30.20
2023-03-03T15:42:01.619Z,28.23
2023-03-03T15:44:39.140Z,27.93
2023-03-03T15:47:24.086Z,31.73
2023-03-03T15:50:08.929Z,30.60
2023-03-03T15:52:49.595Z,31.60
2023-03-03T15:55:33.342Z,31.60
2023-03-03T15:58:19.502Z,30.97
2023-03-03T16:01:00.461Z,31.53
2023-03-03T16:03:35.190Z,32.07
2023-03-03T16:06:10.691Z,33.47
2023-03-03T16:08:47.910Z,31.90
2023-03-03T16:11:25.441Z,31.87
2023-03-03T16:14:05.894Z,32.37
2023-03-03T16:16:44.469Z,29.17
2023-03-03T16:19:27.311Z,30.80
2023-03-03T16:22:10.327Z,29.00
2023-03-03T16:24:51.368Z,30.10
2023-03-03T16:27:25.734Z,29.40
2023-03-03T16:30:13.161Z,29.03
2023-03-03T16:32:45.196Z,31.07
2023-03-03T16:35:23.644Z,32.23
2023-03-03T16:37:59.477Z,29.60
2023-03-03T16:40:30.911Z,29.87
2023-03-03T16:43:06.939Z,28.83
2023-03-03T16:45:39.270Z,28.33
2023-03-03T16:48:20.986Z,28.37
2023-03-03T16:50:56.314Z,28.93
2023-03-03T16:53:42.848Z,31.70
2023-03-03T16:56:15.191Z,30.10
2023-03-03T16:58:55.109Z,32.37
2023-03-03T17:01:30.916Z,30.97
2023-03-03T17:04:03.557Z,31.87
2023-03-03T17:06:41.047Z,31.83
2023-03-03T17:09:44.997Z,32.90
2023-03-03T17:12:26.963Z,33.60
2023-03-03T17:15:08.458Z,33.87
2023-03-03T17:17:45.102Z,33.53
2023-03-03T17:20:31.004Z,31.53
2023-03-03T17:23:36.276Z,30.83
2023-03-03T17:26:22.512Z,29.53
2023-03-03T17:29:05.337Z,31.90
2023-03-03T17:31:42.633Z,31.27
2023-03-03T17:34:26.643Z,33.03
2023-03-03T17:37:04.776Z,33.97
2023-03-03T17:40:08.222Z,37.03
2023-03-03T17:42:48.074Z,37.17
2023-03-03T17:45:17.208Z,37.30
2023-03-03T17:47:54.471Z,37.23
2023-03-03T17:50:57.740Z,36.73
2023-03-03T17:53:44.949Z,37.30
2023-03-03T17:56:20.128Z,37.27
2023-03-03T17:59:17.652Z,39.33
2023-03-03T18:02:07.800Z,38.40
2023-03-03T18:05:05.708Z,36.97
2023-03-03T18:07:59.457Z,38.57
2023-03-03T18:10:43.683Z,37.33
2023-03-03T18:13:28.219Z,37.47
2023-03-03T18:16:12.058Z,37.00
2023-03-03T18:18:58.287Z,37.27
2023-03-03T18:21:30.030Z,36.20
2023-03-03T18:24:28.575Z,37.53
2023-03-03T18:27:13.433Z,33.00
2023-03-03T18:30:01.429Z,33.20
2023-03-03T18:32:42.126Z,30.67
2023-03-03T18:35:25.293Z,33.33
2023-03-03T18:37:54.612Z,32.23
2023-03-03T18:40:35.817Z,36.67
2023-03-03T18:43:36.947Z,34.20
2023-03-03T18:46:05.162Z,34.63
2023-03-03T18:48:50.588Z,34.83
2023-03-03T18:51:51.865Z,34.73
2023-03-03T18:54:34.899Z,32.30
2023-03-03T18:57:19.517Z,33.27
2023-03-03T18:59:55.645Z,33.53
2023-03-03T19:02:34.230Z,34.93
2023-03-03T19:05:17.674Z,35.13
2023-03-03T19:07:51.993Z,36.23
2023-03-03T19:10:56.605Z,36.97
2023-03-03T19:13:47.914Z,31.90
2023-03-03T19:16:37.495Z,34.20
2023-03-03T19:19:19.137Z,33.30
2023-03-03T19:21:51.338Z,33.30
2023-03-03T19:24:34.875Z,30.57
2023-03-03T19:27:27.930Z,28.03
2023-03-03T19:30:23.680Z,26.80
2023-03-03T19:33:15.386Z,26.47
2023-03-03T19:35:55.676Z,26.27
2023-03-03T19:38:34.531Z,27.63
2023-03-03T19:41:14.942Z,25.50
2023-03-03T19:43:52.718Z,27.27
2023-03-03T19:46:44.560Z,27.17
2023-03-03T19:49:22.330Z,26.27
2023-03-03T19:51:57.858Z,25.60
2023-03-03T19:54:47.840Z,25.83
2023-03-03T19:57:26.196Z,27.13
2023-03-03T20:00:00.309Z,28.50
2023-03-03T20:02:45.095Z,28.90
2023-03-03T20:05:21.413Z,29.90
2023-03-03T20:07:58.499Z,29.87
2023-03-03T20:10:39.270Z,30.70
2023-03-03T20:13:17.836Z,32.23
2023-03-03T20:15:53.846Z,32.80
2023-03-03T20:18:44.879Z,31.37
2023-03-03T20:21:23.185Z,31.73
2023-03-03T20:24:02.568Z,34.67
2023-03-03T20:26:35.596Z,35.57
2023-03-03T20:29:16.984Z,34.93
2023-03-03T20:31:53.022Z,36.27
2023-03-03T20:34:32.061Z,37.30
2023-03-03T20:37:07.839Z,38.43
2023-03-03T20:39:44.696Z,37.83
2023-03-03T20:42:24.634Z,36.70
2023-03-03T20:45:10.856Z,37.37
2023-03-03T20:47:46.393Z,34.50
2023-03-03T20:50:27.939Z,36.73
2023-03-03T20:53:07.624Z,35.73
2023-03-03T20:55:46.336Z,35.57
2023-03-03T20:58:20.283Z,36.00
2023-03-03T21:00:54.191Z,34.13
2023-03-03T21:03:32.316Z,33.33
2023-03-03T21:06:03.579Z,34.70
2023-03-03T21:08:48.458Z,34.90
2023-03-03T21:11:18.226Z,35.73
2023-03-03T21:13:48.823Z,36.00
2023-03-03T21:16:31.431Z,38.40
2023-03-03T21:19:00.165Z,39.37
2023-03-03T21:21:31.065Z,40.40
2023-03-03T21:24:00.135Z,38.97
2023-03-03T21:26:48.908Z,39.17
2023-03-03T21:29:35.150Z,38.77
2023-03-03T21:32:05.111Z,37.90
2023-03-03T21:34:37.888Z,36.50
2023-03-03T21:37:09.817Z,34.87
2023-03-03T21:39:40.747Z,32.87
2023-03-03T21:42:10.830Z,32.90
2023-03-03T21:44:41.526Z,30.97
2023-03-03T21:47:12.244Z,32.47
2023-03-03T21:49:42.655Z,30.47
2023-03-03T21:52:13.300Z,29.87
2023-03-03T21:54:41.688Z,29.60
2023-03-03T21:57:09.817Z,30.23
2023-03-03T21:59:37.867Z,29.57
2023-03-03T22:02:05.929Z,32.27
2023-03-03T22:04:34.360Z,31.60
2023-03-03T22:07:02.532Z,31.03
2023-03-03T22:09:31.856Z,31.67
2023-03-03T22:11:59.830Z,32.13
2023-03-03T22:14:28.200Z,30.00
2023-03-03T22:16:56.135Z,30.17
2023-03-03T22:19:24.588Z,30.40
2023-03-03T22:21:52.620Z,30.23
2023-03-03T22:24:20.709Z,27.33
2023-03-03T22:26:50.101Z,26.00
2023-03-03T22:29:22.722Z,24.63
2023-03-03T22:31:50.968Z,23.03
2023-03-03T22:34:19.130Z,21.67
2023-03-03T22:36:47.108Z,22.27
2023-03-03T22:39:15.104Z,24.57
2023-03-03T22:41:43.091Z,28.03
2023-03-03T22:44:12.440Z,27.43
2023-03-03T22:46:40.447Z,25.90
2023-03-03T22:49:08.437Z,24.97
2023-03-03T22:51:36.404Z,27.40
2023-03-03T22:54:05.192Z,26.43
2023-03-03T22:56:33.208Z,27.87
2023-03-03T22:59:01.174Z,27.90
2023-03-03T23:01:30.542Z,27.13
2023-03-03T23:03:58.526Z,28.43
2023-03-03T23:06:26.475Z,30.37
2023-03-03T23:08:54.472Z,28.20
2023-03-03T23:11:24.621Z,29.27
2023-03-03T23:13:52.641Z,27.07
2023-03-03T23:16:20.793Z,25.63
2023-03-03T23:18:50.252Z,25.67
2023-03-03T23:21:18.404Z,28.23
2023-03-03T23:23:46.371Z,29.30
2023-03-03T23:26:14.512Z,28.37
2023-03-03T23:28:42.521Z,28.80
2023-03-03T23:31:10.524Z,28.50
2023-03-03T23:33:38.550Z,28.03
2023-03-03T23:36:08.746Z,27.43
2023-03-03T23:38:36.716Z,28.23
2023-03-03T23:41:04.898Z,27.80
2023-03-03T23:43:33.593Z,26.43
2023-03-03T23:46:01.621Z,26.17
2023-03-03T23:48:29.577Z,27.73
2023-03-03T23:50:57.546Z,25.93
2023-03-03T23:53:26.983Z,27.63
2023-03-03T23:55:54.949Z,27.33
2023-03-03T23:58:22.945Z,26.50
